Terminal Aerodrome Forecast
Issued by NWS

Home | Current Version | Previous Version | Text Only | Print | Product List | Glossary On
Versions: 1 2 3 4 5 6 7 8 9 10 11 12 13
035
FTUS44 KCRP 242332
TAFLRD
TAF
KLRD 242332Z 2500/2524 16010KT P6SM SKC
     FM251000 35014G22KT P6SM SKC
     FM252200 01010KT P6SM SKC=

USA.gov is the U.S. government's official web portal to all federal, state and local government web resources and services.